Time;durP1;ratioP1;P1;durP2;ratioP2;P2;SDS_P1;SDS_P2;PMS_P1;PMS_P2;Temp;Humidity;BMP_temperature;BMP_pressure;BME280_temperature;BME280_humidity;BME280_pressure;Samples;Min_cycle;Max_cycle;Signal;HPM_P1;HPM_P2
2022/01/26 00:06:41;;;;;;;74.63;30.10;;;2.70;99.90;;;;;;5073177;28;20213;-44
2022/01/26 00:09:08;;;;;;;68.90;30.10;;;2.70;99.90;;;;;;5073248;28;20190;-46
2022/01/26 00:11:35;;;;;;;67.17;30.10;;;2.80;99.90;;;;;;5072742;28;20225;-46
2022/01/26 00:14:03;;;;;;;65.83;29.77;;;2.80;99.90;;;;;;5072929;28;20183;-46
2022/01/26 00:16:43;;;;;;;65.97;29.43;;;2.70;99.90;;;;;;5073694;28;20214;-46
2022/01/26 00:19:17;;;;;;;66.73;31.03;;;2.70;99.90;;;;;;5076419;28;20156;-46
2022/01/26 00:21:52;;;;;;;71.27;31.37;;;2.70;99.90;;;;;;5076503;28;20167;-45
2022/01/26 00:29:23;;;;;;;68.13;29.63;;;2.70;99.90;;;;;;5076957;28;20167;-44
2022/01/26 00:40:30;;;;;;;64.80;30.43;;;2.80;99.90;;;;;;5076697;28;20309;-45
2022/01/26 00:43:02;;;;;;;63.70;30.20;;;2.70;99.90;;;;;;5076106;28;20206;-46
2022/01/26 00:45:34;;;;;;;71.63;32.20;;;2.70;99.90;;;;;;5076285;28;20175;-44
2022/01/26 00:48:05;;;;;;;68.93;31.67;;;2.70;99.90;;;;;;5076204;28;20634;-45
2022/01/26 00:50:34;;;;;;;68.60;31.23;;;2.70;99.90;;;;;;5058790;28;20259;-44
2022/01/26 00:53:00;;;;;;;65.70;29.30;;;2.70;99.90;;;;;;5058151;28;20572;-44
2022/01/26 00:55:26;;;;;;;72.87;31.57;;;2.70;99.90;;;;;;5058014;28;20179;-44
2022/01/26 00:57:52;;;;;;;77.10;31.40;;;2.70;99.90;;;;;;5076568;28;20208;-47
2022/01/26 01:00:24;;;;;;;66.27;30.73;;;2.70;99.90;;;;;;5057966;28;20232;-44
2022/01/26 01:02:52;;;;;;;70.60;31.43;;;2.70;99.90;;;;;;5057817;28;20659;-42
2022/01/26 01:05:26;;;;;;;72.43;32.37;;;2.70;99.90;;;;;;5075910;28;20182;-44
2022/01/26 01:07:59;;;;;;;73.40;31.97;;;2.70;99.90;;;;;;5075855;28;20155;-43
2022/01/26 01:10:25;;;;;;;68.93;31.17;;;2.70;99.90;;;;;;5057659;28;20172;-44
2022/01/26 01:12:56;;;;;;;77.70;33.80;;;2.70;99.90;;;;;;5057802;28;20236;-44
2022/01/26 01:15:23;;;;;;;70.20;31.30;;;2.70;99.90;;;;;;5076012;28;20159;-45
2022/01/26 01:17:53;;;;;;;63.63;30.33;;;2.70;99.90;;;;;;5075865;28;20191;-44
2022/01/26 01:28:46;;;;;;;68.30;29.27;;;2.60;99.90;;;;;;5075095;28;20159;-44
2022/01/26 01:31:08;;;;;;;68.40;28.90;;;2.60;99.90;;;;;;5073302;28;20258;-45
2022/01/26 01:33:38;;;;;;;71.83;30.17;;;2.60;99.90;;;;;;5057561;28;20170;-45
2022/01/26 01:36:05;;;;;;;68.13;29.37;;;2.60;99.90;;;;;;5057404;28;20195;-45
2022/01/26 01:38:34;;;;;;;76.27;31.83;;;2.60;99.90;;;;;;5075664;28;20167;-45
2022/01/26 01:40:59;;;;;;;77.37;32.33;;;2.60;99.90;;;;;;5057710;28;20213;-45
2022/01/26 01:43:25;;;;;;;72.40;30.33;;;2.60;99.90;;;;;;5057421;28;20635;-45
2022/01/26 01:45:52;;;;;;;72.33;29.27;;;2.60;99.90;;;;;;5040886;28;20198;-44
2022/01/26 01:48:27;;;;;;;68.03;30.33;;;2.60;99.90;;;;;;5057631;28;20224;-44
2022/01/26 01:50:55;;;;;;;74.17;31.20;;;2.60;99.90;;;;;;5057511;28;20221;-45
2022/01/26 01:53:30;;;;;;;77.20;32.43;;;2.60;99.90;;;;;;5057574;28;20190;-45
2022/01/26 01:55:58;;;;;;;75.87;32.47;;;2.60;99.90;;;;;;5075243;28;20543;-45
2022/01/26 01:58:25;;;;;;;78.77;34.13;;;2.60;99.90;;;;;;5075717;28;20250;-46
2022/01/26 02:00:51;;;;;;;75.97;33.00;;;2.60;99.90;;;;;;5076138;28;20305;-45
2022/01/26 02:03:16;;;;;;;75.03;32.53;;;2.60;99.90;;;;;;5041038;28;20675;-46
2022/01/26 02:05:42;;;;;;;80.37;34.50;;;2.60;99.90;;;;;;5075944;28;20222;-45
2022/01/26 02:08:07;;;;;;;71.43;32.47;;;2.60;99.90;;;;;;5076446;28;20668;-44
2022/01/26 02:10:34;;;;;;;73.53;33.10;;;2.60;99.90;;;;;;5056401;28;20665;-44
2022/01/26 02:13:04;;;;;;;77.40;33.00;;;2.60;99.90;;;;;;5056458;28;20188;-44
2022/01/26 02:15:39;;;;;;;79.43;33.53;;;2.60;99.90;;;;;;5056187;28;20260;-45
2022/01/26 02:56:08;;;;;;;82.63;35.90;;;2.60;99.90;;;;;;5074170;28;20741;-44
2022/01/26 03:06:31;;;;;;;84.43;36.20;;;2.50;99.90;;;;;;5073573;28;20194;-47
2022/01/26 03:09:02;;;;;;;86.00;37.33;;;2.50;99.90;;;;;;5073624;28;20249;-47
2022/01/26 03:11:31;;;;;;;90.10;35.70;;;2.60;99.90;;;;;;5073703;28;20221;-46
2022/01/26 03:14:07;;;;;;;86.27;34.60;;;2.60;99.90;;;;;;5055928;28;20175;-47
2022/01/26 03:16:39;;;;;;;88.00;37.87;;;2.60;99.90;;;;;;5073894;28;20658;-47
2022/01/26 03:21:51;;;;;;;78.60;34.43;;;2.50;99.90;;;;;;5074730;28;20185;-47
2022/01/26 03:29:58;;;;;;;79.47;32.87;;;2.60;99.90;;;;;;5073217;28;20703;-45
2022/01/26 03:35:01;;;;;;;88.50;34.80;;;2.60;99.90;;;;;;5073325;28;20162;-44
2022/01/26 03:37:38;;;;;;;87.33;34.63;;;2.50;99.90;;;;;;5073067;28;20195;-45
2022/01/26 03:40:12;;;;;;;96.17;38.63;;;2.50;99.90;;;;;;5073623;28;20297;-45
2022/01/26 03:42:38;;;;;;;91.43;36.37;;;2.50;99.90;;;;;;5072928;28;20684;-44
2022/01/26 03:45:04;;;;;;;91.93;34.43;;;2.50;99.90;;;;;;5072933;28;20174;-45
2022/01/26 03:47:29;;;;;;;93.40;37.87;;;2.60;99.90;;;;;;5073148;28;20217;-46
2022/01/26 03:49:55;;;;;;;96.27;37.90;;;2.50;99.90;;;;;;5072894;28;20712;-45
2022/01/26 03:52:21;;;;;;;96.70;37.63;;;2.50;99.90;;;;;;5075584;28;20562;-45
2022/01/26 03:54:46;;;;;;;87.20;36.43;;;2.50;99.90;;;;;;5077192;28;20332;-45
2022/01/26 03:57:12;;;;;;;95.00;37.17;;;2.50;99.90;;;;;;5059022;28;20624;-46
2022/01/26 03:59:37;;;;;;;94.90;36.77;;;2.50;99.90;;;;;;5076987;28;20201;-45
2022/01/26 04:02:03;;;;;;;93.17;37.07;;;2.50;99.90;;;;;;5077001;28;20164;-46
2022/01/26 04:04:38;;;;;;;94.53;33.23;;;2.50;99.90;;;;;;5058752;28;20199;-46
2022/01/26 04:07:04;;;;;;;90.63;35.07;;;2.50;99.90;;;;;;5076614;28;20210;-46
2022/01/26 04:09:29;;;;;;;84.87;34.07;;;2.50;99.90;;;;;;5076479;28;20223;-47
2022/01/26 04:11:55;;;;;;;95.93;35.17;;;2.50;99.90;;;;;;5076984;28;20182;-45
2022/01/26 04:14:25;;;;;;;96.27;38.07;;;2.40;99.90;;;;;;5076553;28;20178;-45
2022/01/26 04:16:51;;;;;;;92.87;37.10;;;2.50;99.90;;;;;;5076457;28;20599;-45
2022/01/26 04:19:18;;;;;;;89.87;34.97;;;2.40;99.90;;;;;;5076506;28;20263;-44
2022/01/26 04:21:58;;;;;;;88.47;36.03;;;2.40;99.90;;;;;;5076329;28;20246;-44
2022/01/26 04:24:30;;;;;;;97.40;36.43;;;2.40;99.90;;;;;;5077650;28;20187;-45
2022/01/26 04:27:16;;;;;;;88.60;33.93;;;2.40;99.90;;;;;;5058754;28;20729;-43
2022/01/26 04:29:41;;;;;;;81.67;32.33;;;2.40;99.90;;;;;;5059079;28;20225;-45
2022/01/26 04:32:09;;;;;;;102.00;36.70;;;2.40;99.90;;;;;;5058760;28;20712;-44
2022/01/26 04:34:36;;;;;;;83.83;32.53;;;2.30;99.90;;;;;;5058700;28;20231;-43
2022/01/26 04:39:46;;;;;;;68.50;25.27;;;2.30;99.90;;;;;;5076709;28;20534;-44
2022/01/26 04:42:23;;;;;;;95.27;38.90;;;2.30;99.90;;;;;;5076704;28;20533;-44
2022/01/26 04:44:56;;;;;;;91.50;36.50;;;2.30;99.90;;;;;;5043274;28;20208;-44
2022/01/26 04:47:22;;;;;;;95.70;35.37;;;2.30;99.90;;;;;;5076124;28;20678;-44
2022/01/26 04:49:48;;;;;;;86.20;33.30;;;2.30;99.90;;;;;;5058064;28;20200;-44
2022/01/26 04:52:13;;;;;;;90.53;34.43;;;2.30;99.90;;;;;;5058196;28;20202;-43
2022/01/26 04:54:39;;;;;;;88.40;33.07;;;2.30;99.90;;;;;;5076669;28;20235;-43
2022/01/26 04:57:05;;;;;;;108.70;40.63;;;2.30;99.90;;;;;;5058051;28;20231;-44
2022/01/26 04:59:30;;;;;;;103.23;38.80;;;2.30;99.90;;;;;;5058217;28;20181;-43
2022/01/26 05:01:56;;;;;;;106.73;41.13;;;2.30;99.90;;;;;;5057801;28;20635;-45
2022/01/26 05:04:22;;;;;;;92.20;35.67;;;2.30;99.90;;;;;;5056853;28;20630;-45
2022/01/26 05:06:47;;;;;;;93.13;37.97;;;2.30;99.90;;;;;;5076233;28;20207;-44
2022/01/26 05:09:13;;;;;;;102.43;37.87;;;2.30;99.90;;;;;;5057919;28;20182;-45
2022/01/26 05:11:41;;;;;;;94.13;37.53;;;2.30;99.90;;;;;;5075768;28;20220;-46
2022/01/26 05:14:07;;;;;;;94.07;35.63;;;2.30;99.90;;;;;;5075933;28;20179;-45
2022/01/26 05:16:33;;;;;;;83.00;32.03;;;2.30;99.90;;;;;;5057615;28;20239;-45
2022/01/26 05:18:59;;;;;;;90.37;34.33;;;2.30;99.90;;;;;;5057704;28;20186;-44
2022/01/26 05:21:26;;;;;;;97.17;33.87;;;2.30;99.90;;;;;;5057715;28;20210;-44
2022/01/26 05:23:53;;;;;;;102.83;36.77;;;2.30;99.90;;;;;;5057995;28;20289;-45
2022/01/26 05:26:19;;;;;;;91.77;35.13;;;2.20;99.90;;;;;;5075667;28;20677;-46
2022/01/26 05:28:44;;;;;;;96.73;36.30;;;2.20;99.90;;;;;;5075364;28;20258;-46
2022/01/26 05:31:10;;;;;;;96.27;36.90;;;2.30;99.90;;;;;;5075040;28;20263;-46
2022/01/26 05:33:36;;;;;;;91.83;36.40;;;2.30;99.90;;;;;;5075052;28;20179;-45
2022/01/26 05:36:02;;;;;;;96.77;36.13;;;2.20;99.90;;;;;;5074963;28;20259;-46
2022/01/26 05:38:28;;;;;;;100.37;37.67;;;2.20;99.90;;;;;;5075205;28;20186;-45
2022/01/26 05:40:56;;;;;;;101.17;37.30;;;2.20;99.90;;;;;;5075244;28;20209;-45
2022/01/26 05:43:21;;;;;;;97.37;35.60;;;2.20;99.90;;;;;;5074751;28;20204;-46
2022/01/26 05:45:51;;;;;;;100.60;36.97;;;2.20;99.90;;;;;;5056664;28;20202;-45
2022/01/26 05:48:17;;;;;;;100.77;37.90;;;2.30;99.90;;;;;;5075015;28;20182;-45
2022/01/26 05:51:03;;;;;;;108.70;39.27;;;2.20;99.90;;;;;;5056757;28;20183;-46
2022/01/26 05:53:29;;;;;;;107.13;37.53;;;2.20;99.90;;;;;;5074581;28;20227;-45
2022/01/26 05:55:55;;;;;;;103.83;39.33;;;2.30;99.90;;;;;;5074562;28;20206;-45
2022/01/26 05:58:20;;;;;;;111.60;40.53;;;2.20;99.90;;;;;;5074527;28;20549;-46
2022/01/26 06:00:46;;;;;;;104.30;37.60;;;2.20;99.90;;;;;;5074685;28;20193;-46
2022/01/26 06:03:12;;;;;;;115.17;40.90;;;2.30;99.90;;;;;;5074380;28;20206;-46
2022/01/26 06:05:38;;;;;;;111.80;40.87;;;2.20;99.90;;;;;;5074554;28;20196;-45
2022/01/26 06:08:04;;;;;;;115.83;39.80;;;2.20;99.90;;;;;;5056505;28;20183;-46
2022/01/26 06:10:30;;;;;;;107.93;38.60;;;2.20;99.90;;;;;;5075258;28;20182;-46
2022/01/26 06:12:55;;;;;;;64.93;23.83;;;2.20;99.90;;;;;;5074275;28;20187;-46
2022/01/26 06:15:21;;;;;;;114.77;41.17;;;2.20;99.90;;;;;;5074416;28;20183;-44
2022/01/26 06:17:47;;;;;;;123.13;41.33;;;2.20;99.90;;;;;;5056197;28;20882;-46
2022/01/26 06:20:13;;;;;;;115.30;39.57;;;2.20;99.90;;;;;;5056099;28;20226;-46
2022/01/26 06:22:39;;;;;;;118.97;39.40;;;2.20;99.90;;;;;;5074589;28;20698;-46
2022/01/26 06:25:07;;;;;;;124.33;41.53;;;2.20;99.90;;;;;;5073974;28;20178;-45
2022/01/26 06:27:37;;;;;;;120.20;40.50;;;2.20;99.90;;;;;;5074360;28;20195;-44
2022/01/26 06:30:04;;;;;;;126.57;41.00;;;2.20;99.90;;;;;;5074186;28;20167;-45
2022/01/26 06:32:30;;;;;;;111.37;38.13;;;2.20;99.90;;;;;;5074166;28;20602;-45
2022/01/26 06:34:56;;;;;;;108.23;34.63;;;2.20;99.90;;;;;;5073823;28;20209;-45
2022/01/26 06:37:22;;;;;;;77.50;27.87;;;2.20;99.90;;;;;;5073999;28;20628;-45
2022/01/26 06:39:48;;;;;;;108.73;36.87;;;2.20;99.90;;;;;;5073680;28;20409;-45
2022/01/26 06:42:17;;;;;;;121.20;41.20;;;2.20;99.90;;;;;;5055780;28;20178;-46
2022/01/26 06:44:56;;;;;;;108.57;39.73;;;2.20;99.90;;;;;;5073929;28;20186;-45
2022/01/26 06:49:53;;;;;;;103.73;39.03;;;2.20;99.90;;;;;;5074266;28;20197;-46
2022/01/26 06:52:19;;;;;;;96.77;35.97;;;2.20;99.90;;;;;;5073773;28;20545;-45
2022/01/26 06:54:45;;;;;;;103.27;37.17;;;2.20;99.90;;;;;;5073585;28;20183;-43
2022/01/26 06:57:11;;;;;;;98.00;34.83;;;2.20;99.90;;;;;;5073660;28;20681;-46
2022/01/26 06:59:37;;;;;;;97.43;34.80;;;2.20;99.90;;;;;;5073661;28;20471;-46
2022/01/26 07:02:03;;;;;;;89.00;34.37;;;2.20;99.90;;;;;;5055508;28;20224;-46
2022/01/26 07:04:28;;;;;;;90.93;35.90;;;2.20;99.90;;;;;;5073395;28;20255;-47
2022/01/26 07:06:54;;;;;;;88.83;34.70;;;2.20;99.90;;;;;;5073381;28;20189;-44
2022/01/26 07:09:20;;;;;;;84.03;31.77;;;2.20;99.90;;;;;;5055833;28;20781;-45
2022/01/26 07:11:46;;;;;;;106.30;36.53;;;2.20;99.90;;;;;;5073618;28;20171;-46
2022/01/26 07:14:22;;;;;;;113.60;37.27;;;2.30;99.90;;;;;;5055335;28;20274;-45
2022/01/26 07:19:53;;;;;;;108.07;36.70;;;2.20;99.90;;;;;;5073760;28;20200;-45
2022/01/26 07:22:19;;;;;;;109.40;37.43;;;2.20;99.90;;;;;;5073609;28;20156;-45
2022/01/26 07:24:45;;;;;;;95.70;36.53;;;2.30;99.90;;;;;;5073476;28;20583;-46
2022/01/26 07:27:11;;;;;;;107.80;37.47;;;2.20;99.90;;;;;;5072228;28;20316;-46
2022/01/26 07:29:37;;;;;;;102.17;37.33;;;2.20;99.90;;;;;;5073258;28;20689;-46
2022/01/26 07:32:05;;;;;;;114.50;39.13;;;2.20;99.90;;;;;;5055141;28;20194;-44
2022/01/26 07:34:31;;;;;;;107.23;38.53;;;2.20;99.90;;;;;;5055064;28;20193;-44
2022/01/26 07:37:02;;;;;;;122.13;41.20;;;2.20;99.90;;;;;;5073182;28;20277;-46
2022/01/26 07:39:42;;;;;;;106.73;35.30;;;2.20;99.90;;;;;;5055137;28;20186;-46
2022/01/26 07:42:10;;;;;;;121.80;39.60;;;2.20;99.90;;;;;;5073118;28;20185;-46
2022/01/26 07:44:35;;;;;;;123.97;41.80;;;2.30;99.90;;;;;;5054912;28;20256;-46
2022/01/26 07:47:01;;;;;;;113.37;39.53;;;2.20;99.90;;;;;;5072948;28;20219;-46
2022/01/26 07:49:27;;;;;;;130.23;40.13;;;2.20;99.90;;;;;;5073036;28;20178;-46
2022/01/26 07:51:52;;;;;;;123.73;38.83;;;2.20;99.90;;;;;;5073262;28;20186;-44
2022/01/26 07:54:20;;;;;;;117.77;38.43;;;2.50;99.90;;;;;;5074618;28;20183;-45
2022/01/26 07:56:46;;;;;;;117.80;38.80;;;2.20;99.90;;;;;;5056291;28;20610;-45
2022/01/26 07:59:12;;;;;;;132.37;43.73;;;2.20;99.90;;;;;;5074520;28;20603;-45
2022/01/26 08:01:38;;;;;;;119.57;41.70;;;2.20;99.90;;;;;;5074201;28;20181;-43
2022/01/26 08:04:04;;;;;;;124.60;40.13;;;2.20;99.90;;;;;;5073429;28;20323;-45
2022/01/26 08:06:31;;;;;;;122.23;40.27;;;2.20;99.90;;;;;;5073895;28;20206;-43
2022/01/26 08:08:56;;;;;;;133.23;43.77;;;2.20;99.90;;;;;;5073812;28;20185;-43
2022/01/26 08:11:24;;;;;;;135.80;41.80;;;2.20;99.90;;;;;;5073962;28;20179;-44
2022/01/26 08:13:50;;;;;;;126.10;41.63;;;2.20;99.90;;;;;;5073883;28;20176;-44
2022/01/26 08:16:16;;;;;;;120.07;39.57;;;2.20;99.90;;;;;;5073925;28;20199;-45
2022/01/26 08:18:41;;;;;;;119.30;40.30;;;2.20;99.90;;;;;;5074445;28;20189;-46
2022/01/26 08:21:07;;;;;;;123.43;40.33;;;2.20;99.90;;;;;;5074244;28;20202;-46
2022/01/26 08:23:35;;;;;;;125.13;39.40;;;2.20;99.90;;;;;;5073855;28;20572;-44
2022/01/26 08:26:01;;;;;;;114.90;38.93;;;2.20;99.90;;;;;;5055165;28;20701;-44
2022/01/26 08:28:32;;;;;;;126.53;39.77;;;2.20;99.90;;;;;;5055024;28;20261;-45
2022/01/26 08:30:58;;;;;;;104.37;35.47;;;2.20;99.90;;;;;;5055087;28;20171;-46
2022/01/26 08:33:23;;;;;;;127.33;41.53;;;2.20;99.90;;;;;;5072911;28;20217;-45
2022/01/26 08:35:49;;;;;;;127.63;41.23;;;2.20;99.90;;;;;;5072944;28;20632;-46
2022/01/26 08:38:14;;;;;;;128.90;39.97;;;2.20;99.90;;;;;;5074880;28;20194;-45
2022/01/26 08:40:40;;;;;;;132.77;42.37;;;2.20;99.90;;;;;;5058587;28;20265;-44
2022/01/26 08:43:06;;;;;;;129.97;43.27;;;2.30;99.90;;;;;;5058481;28;20207;-43
2022/01/26 08:45:32;;;;;;;127.43;40.30;;;2.20;99.90;;;;;;5076342;28;20182;-43
2022/01/26 08:47:58;;;;;;;135.23;43.30;;;2.30;99.90;;;;;;5058175;28;20243;-45
2022/01/26 08:50:23;;;;;;;132.60;41.77;;;2.20;99.90;;;;;;5076127;28;20666;-45
2022/01/26 08:52:49;;;;;;;124.57;38.43;;;2.30;99.90;;;;;;5076082;28;20191;-44
2022/01/26 08:55:15;;;;;;;127.67;40.43;;;2.20;99.90;;;;;;5075993;28;20187;-44
2022/01/26 08:57:41;;;;;;;139.80;42.43;;;2.30;99.90;;;;;;5075940;28;20604;-45
2022/01/26 09:00:09;;;;;;;132.20;39.97;;;2.30;99.90;;;;;;5076276;28;20236;-45
2022/01/26 09:02:37;;;;;;;138.50;42.33;;;2.30;99.90;;;;;;5075899;28;20174;-44
2022/01/26 09:05:06;;;;;;;133.77;41.60;;;2.30;99.90;;;;;;5076270;28;20185;-45
2022/01/26 09:07:32;;;;;;;130.43;39.57;;;2.30;99.90;;;;;;5076130;28;20280;-44
2022/01/26 09:10:00;;;;;;;122.83;39.70;;;2.30;99.90;;;;;;5075884;28;20211;-46
2022/01/26 09:12:27;;;;;;;137.10;40.63;;;2.30;99.90;;;;;;5076069;28;20205;-44
2022/01/26 09:14:53;;;;;;;132.20;37.00;;;2.30;99.90;;;;;;5057771;28;20615;-44
2022/01/26 09:17:20;;;;;;;131.80;40.47;;;2.30;99.90;;;;;;5057944;28;20720;-43
2022/01/26 09:19:47;;;;;;;129.87;38.33;;;2.30;99.90;;;;;;5057581;28;20248;-45
2022/01/26 09:22:15;;;;;;;120.53;40.67;;;2.30;99.90;;;;;;5076172;28;20164;-43
2022/01/26 09:24:42;;;;;;;128.40;37.53;;;2.40;99.90;;;;;;5057778;28;20210;-45
2022/01/26 09:27:10;;;;;;;129.87;40.10;;;2.40;99.90;;;;;;5057710;28;20199;-45
2022/01/26 09:29:36;;;;;;;123.43;40.30;;;2.40;99.90;;;;;;5076186;28;20185;-45
2022/01/26 09:32:04;;;;;;;119.53;39.23;;;2.40;99.90;;;;;;5057936;28;20417;-44
2022/01/26 09:34:30;;;;;;;129.93;41.83;;;2.40;99.90;;;;;;5057956;28;20279;-45
2022/01/26 09:36:57;;;;;;;136.93;43.57;;;2.40;99.90;;;;;;5058518;28;20213;-44
2022/01/26 09:39:23;;;;;;;137.13;41.67;;;2.40;99.90;;;;;;5075668;28;20202;-44
2022/01/26 09:41:51;;;;;;;124.57;40.27;;;2.40;99.90;;;;;;5075733;28;20179;-44
2022/01/26 09:44:17;;;;;;;114.30;38.23;;;2.40;99.90;;;;;;5057397;28;20199;-43
2022/01/26 09:46:44;;;;;;;134.10;43.13;;;2.40;99.90;;;;;;5075339;28;20222;-44
2022/01/26 09:49:10;;;;;;;110.53;35.07;;;2.40;99.90;;;;;;5074686;28;20182;-44
2022/01/26 09:51:42;;;;;;;137.10;39.77;;;2.40;99.90;;;;;;5075377;28;20171;-43
2022/01/26 09:54:14;;;;;;;109.60;33.87;;;2.50;99.90;;;;;;5075625;28;20202;-44
2022/01/26 09:56:40;;;;;;;115.77;36.73;;;2.50;99.90;;;;;;5075838;28;20679;-44
2022/01/26 09:59:08;;;;;;;115.23;37.93;;;2.50;99.90;;;;;;5075368;28;20176;-44
2022/01/26 10:01:43;;;;;;;120.30;36.83;;;2.50;99.90;;;;;;5057521;28;20183;-43
2022/01/26 10:04:23;;;;;;;119.17;38.03;;;2.50;99.90;;;;;;5074893;28;20251;-45
2022/01/26 10:07:09;;;;;;;126.37;37.57;;;2.50;99.90;;;;;;5074316;28;20193;-45
2022/01/26 10:17:39;;;;;;;106.57;31.97;;;2.50;99.90;;;;;;5074461;28;20260;-44
2022/01/26 10:20:06;;;;;;;112.30;35.20;;;2.50;99.90;;;;;;5074143;28;20297;-44
2022/01/26 10:22:34;;;;;;;98.73;31.53;;;2.60;99.90;;;;;;5074452;28;20517;-44
2022/01/26 10:25:07;;;;;;;97.43;31.37;;;2.50;99.90;;;;;;5074321;28;20180;-44
2022/01/26 10:27:37;;;;;;;110.63;33.77;;;2.60;99.90;;;;;;5074182;28;20437;-45
2022/01/26 10:30:06;;;;;;;90.30;29.03;;;2.60;99.90;;;;;;5074057;28;20210;-44
2022/01/26 10:32:36;;;;;;;99.97;32.10;;;2.60;99.90;;;;;;5073891;28;20253;-44
2022/01/26 10:35:04;;;;;;;101.23;30.83;;;2.50;99.90;;;;;;5074451;28;20811;-45
2022/01/26 10:37:30;;;;;;;95.70;31.40;;;2.60;99.90;;;;;;5073669;28;20205;-45
2022/01/26 10:40:15;;;;;;;94.87;29.73;;;2.60;99.90;;;;;;5074104;28;20762;-42
2022/01/26 10:42:56;;;;;;;101.10;30.43;;;2.60;99.90;;;;;;5056474;28;20567;-44
2022/01/26 10:45:45;;;;;;;99.00;28.23;;;2.50;99.90;;;;;;5073947;28;20216;-42
2022/01/26 10:48:22;;;;;;;97.17;29.70;;;2.50;99.90;;;;;;5074097;28;20686;-44
2022/01/26 10:53:38;;;;;;;89.13;29.87;;;2.60;99.90;;;;;;5073903;28;20642;-43
2022/01/26 10:56:05;;;;;;;85.10;27.20;;;2.60;99.90;;;;;;5073703;28;20202;-43
2022/01/26 10:58:31;;;;;;;86.33;28.40;;;2.60;99.90;;;;;;5074303;28;20226;-44
2022/01/26 11:00:58;;;;;;;83.40;29.40;;;2.60;99.90;;;;;;5055601;28;20194;-43
2022/01/26 11:03:23;;;;;;;77.07;27.40;;;2.60;99.90;;;;;;5073409;28;20202;-43
2022/01/26 11:05:50;;;;;;;91.23;27.40;;;2.60;99.90;;;;;;5073953;28;20252;-43
2022/01/26 11:08:16;;;;;;;85.33;27.17;;;2.60;99.90;;;;;;5073920;28;20172;-44
2022/01/26 11:10:45;;;;;;;82.47;27.73;;;2.60;99.90;;;;;;5055483;28;20179;-43
2022/01/26 11:13:22;;;;;;;83.53;27.63;;;2.60;99.90;;;;;;5073343;28;20182;-44
2022/01/26 11:15:47;;;;;;;77.40;26.93;;;2.60;99.90;;;;;;5073324;28;20201;-44
2022/01/26 11:18:21;;;;;;;72.10;25.17;;;2.60;99.90;;;;;;5073542;28;20180;-44
2022/01/26 11:20:50;;;;;;;78.20;26.53;;;2.60;99.90;;;;;;5055915;28;20226;-42
2022/01/26 11:23:32;;;;;;;80.40;29.17;;;2.60;99.90;;;;;;5055777;28;20613;-43
2022/01/26 11:25:58;;;;;;;78.63;25.93;;;2.60;99.90;;;;;;5073146;28;20233;-44
2022/01/26 11:28:26;;;;;;;74.00;24.23;;;2.60;99.90;;;;;;5073460;28;20228;-42
2022/01/26 11:30:57;;;;;;;75.33;25.93;;;2.60;99.90;;;;;;5073049;28;20179;-42
2022/01/26 11:33:26;;;;;;;71.43;24.23;;;2.60;99.90;;;;;;5055527;28;20642;-43
2022/01/26 11:35:56;;;;;;;84.40;25.80;;;2.60;99.90;;;;;;5072967;28;20675;-43
2022/01/26 11:46:26;;;;;;;77.63;26.27;;;2.70;99.90;;;;;;5073022;28;20241;-44
2022/01/26 11:49:07;;;;;;;65.47;21.87;;;2.60;99.90;;;;;;5073011;28;20175;-44
2022/01/26 11:51:41;;;;;;;75.40;25.43;;;2.70;99.90;;;;;;5073181;28;20159;-43
2022/01/26 11:54:21;;;;;;;67.93;24.70;;;2.70;99.90;;;;;;5055021;28;20223;-45
2022/01/26 11:57:03;;;;;;;77.17;26.40;;;2.70;99.90;;;;;;5073322;28;20199;-44
2022/01/26 11:59:31;;;;;;;64.60;22.07;;;2.70;99.90;;;;;;5073388;28;20171;-44
2022/01/26 12:02:01;;;;;;;85.73;27.43;;;2.70;99.90;;;;;;5054985;28;20610;-45
2022/01/26 12:04:32;;;;;;;82.80;27.20;;;2.70;99.90;;;;;;5055629;28;20211;-44
2022/01/26 12:07:09;;;;;;;88.27;29.53;;;2.70;99.90;;;;;;5073431;28;20308;-43
2022/01/26 12:09:35;;;;;;;67.43;25.80;;;2.70;99.90;;;;;;5074543;28;20151;-44
2022/01/26 12:12:01;;;;;;;77.93;27.97;;;2.80;99.90;;;;;;5073154;28;20176;-43
2022/01/26 12:14:26;;;;;;;72.77;26.60;;;2.80;99.90;;;;;;5076850;28;20286;-42
2022/01/26 12:16:55;;;;;;;81.23;28.87;;;2.80;99.90;;;;;;5076586;28;20227;-44
2022/01/26 12:19:35;;;;;;;80.63;28.80;;;2.80;99.90;;;;;;5076586;28;20635;-44
2022/01/26 12:36:22;;;;;;;76.27;27.17;;;2.90;99.90;;;;;;5076726;28;20282;-45
2022/01/26 12:38:57;;;;;;;75.50;25.87;;;2.90;99.90;;;;;;5058761;28;20706;-46
2022/01/26 12:41:34;;;;;;;73.20;25.73;;;2.90;99.90;;;;;;5076953;28;20164;-46
2022/01/26 12:44:12;;;;;;;87.37;29.13;;;2.90;99.90;;;;;;5076223;28;20278;-46
2022/01/26 12:46:39;;;;;;;83.03;29.93;;;2.90;99.90;;;;;;5058257;28;20192;-46
2022/01/26 12:49:09;;;;;;;85.63;26.53;;;2.90;99.90;;;;;;5076209;28;20228;-45
2022/01/26 12:51:46;;;;;;;83.80;28.07;;;2.90;99.90;;;;;;5057998;28;20186;-45
2022/01/26 12:54:12;;;;;;;82.90;29.40;;;2.90;99.90;;;;;;5076060;28;20179;-46
2022/01/26 12:56:39;;;;;;;73.43;26.20;;;2.90;99.90;;;;;;5075810;28;20203;-46
2022/01/26 12:59:16;;;;;;;66.63;26.57;;;2.90;99.90;;;;;;5075951;28;20191;-45
2022/01/26 13:01:42;;;;;;;68.70;24.47;;;2.90;99.90;;;;;;5075719;28;20180;-46
2022/01/26 13:04:11;;;;;;;82.43;31.03;;;2.90;99.90;;;;;;5075683;28;20222;-46
2022/01/26 13:06:46;;;;;;;92.13;30.30;;;2.90;99.90;;;;;;5075966;28;20300;-46
2022/01/26 13:09:17;;;;;;;83.50;27.70;;;2.90;99.90;;;;;;5075903;28;20169;-44
2022/01/26 13:11:46;;;;;;;81.23;27.83;;;2.90;99.90;;;;;;5075840;28;20681;-46
2022/01/26 13:14:26;;;;;;;63.33;24.87;;;3.00;99.90;;;;;;5057791;28;20179;-45
2022/01/26 13:20:53;;;;;;;79.53;29.40;;;3.00;99.90;;;;;;5075398;28;20190;-46
2022/01/26 13:29:12;;;;;;;79.37;26.83;;;3.10;99.90;;;;;;5052202;28;20278;-41
2022/01/26 13:32:07;;;;;;;76.97;30.00;;;3.10;99.90;;;;;;5061068;28;20657;-44
2022/01/26 13:42:54;;;;;;;66.30;22.53;;;3.10;99.90;;;;;;5075156;28;20183;-43
2022/01/26 13:50:43;;;;;;;77.40;28.33;;;3.10;99.90;;;;;;5075003;28;20277;-44
2022/01/26 13:53:17;;;;;;;76.83;27.03;;;3.10;99.90;;;;;;5074954;28;20172;-43
2022/01/26 13:56:06;;;;;;;72.33;28.37;;;3.10;99.90;;;;;;5074817;28;20187;-41
2022/01/26 14:01:15;;;;;;;62.03;23.07;;;3.10;99.90;;;;;;5057990;28;20159;-42
2022/01/26 14:03:42;;;;;;;70.23;26.23;;;3.10;99.90;;;;;;5074439;28;20700;-42
2022/01/26 14:06:09;;;;;;;76.90;28.07;;;3.10;99.90;;;;;;5074383;28;20202;-43
2022/01/26 14:08:35;;;;;;;78.63;27.47;;;3.10;99.90;;;;;;5074732;28;20218;-43
2022/01/26 14:11:01;;;;;;;82.60;28.80;;;3.10;99.90;;;;;;5074690;28;20179;-44
2022/01/26 14:13:27;;;;;;;65.03;23.73;;;3.10;99.90;;;;;;5074299;28;20237;-44
2022/01/26 14:15:56;;;;;;;77.23;29.07;;;3.10;99.90;;;;;;5074072;28;20230;-44
2022/01/26 14:21:07;;;;;;;70.80;26.83;;;3.10;99.90;;;;;;5074156;28;20187;-42
2022/01/26 14:26:13;;;;;;;85.10;27.63;;;3.10;99.90;;;;;;5074621;28;20205;-43
2022/01/26 14:28:39;;;;;;;63.63;24.13;;;3.10;99.90;;;;;;5073926;28;20651;-44
2022/01/26 14:55:57;;;;;;;71.07;28.37;;;3.10;99.90;;;;;;5073664;28;20632;-45
2022/01/26 15:08:48;;;;;;;73.03;25.50;;;3.10;99.90;;;;;;5073717;28;20155;-41
2022/01/26 15:41:10;;;;;;;69.00;27.17;;;3.00;99.90;;;;;;5073770;28;20500;-46
2022/01/26 15:44:01;;;;;;;61.27;24.40;;;3.00;99.90;;;;;;5073525;28;20277;-46
2022/01/26 15:49:40;;;;;;;72.20;27.40;;;3.00;99.90;;;;;;5078264;28;20529;-45
2022/01/26 15:52:09;;;;;;;68.60;28.00;;;3.00;99.90;;;;;;5075641;28;20184;-45
2022/01/26 16:08:07;;;;;;;71.87;25.83;;;2.90;99.90;;;;;;5077132;28;20531;-47
2022/01/26 16:21:28;;;;;;;69.33;27.03;;;2.90;99.90;;;;;;5077165;28;20201;-47
2022/01/26 17:02:31;;;;;;;65.80;25.03;;;2.70;99.90;;;;;;5075989;28;20179;-46
2022/01/26 17:21:16;;;;;;;69.47;25.47;;;2.60;99.90;;;;;;5075917;28;20551;-46
2022/01/26 17:24:28;;;;;;;62.37;25.03;;;2.60;99.90;;;;;;5075696;28;20205;-45
2022/01/26 18:15:04;;;;;;;48.83;19.07;;;2.50;99.90;;;;;;5075097;28;20174;-45
2022/01/26 18:16:21;;;;;;;61.37;24.10;;;2.60;99.90;;;;;;5066928;28;20223;-44
2022/01/26 18:31:45;;;;;;;55.90;22.30;;;2.60;99.90;;;;;;5074107;28;20222;-45
2022/01/26 18:32:43;;;;;;;60.10;23.33;;;2.60;99.90;;;;;;5074373;28;20195;-45
2022/01/26 18:40:48;;;;;;;59.77;23.00;;;2.50;99.90;;;;;;5074456;28;20526;-45
2022/01/26 18:51:26;;;;;;;53.67;19.50;;;2.60;99.90;;;;;;5074066;28;20178;-45
2022/01/26 18:53:52;;;;;;;58.30;21.17;;;2.50;99.90;;;;;;5073956;28;20647;-46
2022/01/26 18:56:18;;;;;;;50.43;22.50;;;2.60;99.90;;;;;;5073536;28;20210;-46
2022/01/26 18:58:43;;;;;;;53.57;20.27;;;2.60;99.90;;;;;;5073796;28;20588;-44